Curapca, Russia
Current Conditions -  °F | °C
As of 4:00 PM on Saturday 25 Oct 2014 (Local Time) from UEEE Reporting Station
Clear Clear  
Wind Chill: -10°   Ceiling: Unl
Heat Index:   Visibility: 6mi
Dew Point: -4°   Wind: 4mph
Humidity: 85%   Direction: 160°SSE
Pressure: 30.3"   Gusts: NA
Location:  62.03°N, 132.6°E
Report Text: UEEE 250700Z 16002MPS CAVOK M18/M20 Q1026 NOSIG RMK QFE76123490150
Loading
Personal Weather Stations






























Interactive Weather Map
Tropical Storm Tracking
New forecast layout! Learn more

10-Day Weather Forecast

Advertisements
Track Severe Weather on mobile